Time;durP1;ratioP1;P1;durP2;ratioP2;P2;SDS_P1;SDS_P2;PMS_P1;PMS_P2;Temp;Humidity;BMP_temperature;BMP_pressure;BME280_temperature;BME280_humidity;BME280_pressure;Samples;Min_cycle;Max_cycle;Signal;HPM_P1;HPM_P2
2022/11/08 00:01:47;;;;;;;181.80;113.28;;;;;;;29.36;72.84;101069.31;5001305;28;65797;-40
2022/11/08 00:04:19;;;;;;;162.60;102.82;;;;;;;29.40;73.06;101081.38;4996700;28;70335;-38
2022/11/08 00:15:18;;;;;;;125.55;73.32;;;;;;;29.40;74.65;101075.13;4997628;28;70177;-40
2022/11/08 00:17:49;;;;;;;118.75;67.85;;;;;;;29.51;75.17;101092.63;4991389;28;66165;-40
2022/11/08 00:20:20;;;;;;;106.15;61.20;;;;;;;29.44;75.04;101083.66;4998189;28;70075;-41
2022/11/08 00:22:51;;;;;;;93.20;56.10;;;;;;;29.14;74.82;101043.47;4998715;28;65424;-40
2022/11/08 00:25:22;;;;;;;96.18;51.58;;;;;;;29.55;74.94;101110.06;4998946;28;70375;-40
2022/11/08 00:27:53;;;;;;;78.47;47.20;;;;;;;29.51;74.44;101109.66;4995034;28;66923;-40
2022/11/08 00:30:24;;;;;;;83.03;47.10;;;;;;;29.47;75.55;101102.16;4998858;28;68974;-42
2022/11/08 00:32:55;;;;;;;78.65;43.42;;;;;;;29.58;75.37;101117.75;4999764;28;65653;-40
2022/11/08 00:35:26;;;;;;;69.40;42.83;;;;;;;29.60;75.57;101113.00;4997183;28;69899;-41
2022/11/08 00:37:57;;;;;;;74.40;42.15;;;;;;;29.59;75.96;101120.28;4999002;28;66168;-39
2022/11/08 00:40:27;;;;;;;65.47;38.85;;;;;;;29.60;75.67;101121.09;4996315;28;70048;-40
2022/11/08 00:42:58;;;;;;;100.05;76.70;;;;;;;29.70;72.43;101128.81;4999238;28;65427;-40
2022/11/08 00:45:29;;;;;;;83.35;62.58;;;;;;;29.70;71.88;101134.22;4993489;28;69443;-43
2022/11/08 00:48:03;;;;;;;86.20;69.20;;;;;;;29.72;71.28;101138.41;4997405;28;43477;-41
2022/11/08 00:50:37;;;;;;;91.38;76.95;;;;;;;29.76;71.15;101142.38;4996125;28;70823;-41
2022/11/08 00:53:08;;;;;;;126.43;113.05;;;;;;;29.69;70.52;101136.09;4997278;28;66597;-41
2022/11/08 00:55:39;;;;;;;286.00;259.03;;;;;;;29.77;70.32;101144.03;4995829;28;70593;-42
2022/11/08 00:58:10;;;;;;;435.25;393.63;;;;;;;29.08;70.48;101028.09;4999460;28;66470;-41
2022/11/08 01:00:41;;;;;;;565.33;513.90;;;;;;;29.39;70.55;101073.44;4999510;28;70327;-43
2022/11/08 01:03:18;;;;;;;569.80;517.08;;;;;;;29.91;69.96;101160.28;4998777;28;65658;-43
2022/11/08 01:05:51;;;;;;;615.63;557.90;;;;;;;29.45;69.69;101077.19;4996433;28;70567;-43
2022/11/08 01:08:23;;;;;;;581.75;525.90;;;;;;;29.85;69.86;101143.00;5001079;28;65868;-42
2022/11/08 01:10:54;;;;;;;655.60;592.03;;;;;;;29.91;70.32;101160.28;4998940;28;69584;-43
2022/11/08 01:13:25;;;;;;;628.03;566.78;;;;;;;29.98;70.02;101163.81;4999773;28;66139;-41
2022/11/08 01:15:56;;;;;;;565.22;508.02;;;;;;;29.94;70.07;101154.44;4989659;28;71091;-42
2022/11/08 01:18:27;;;;;;;457.23;409.88;;;;;;;29.86;70.17;101149.22;4999877;28;66134;-42
2022/11/08 01:20:57;;;;;;;370.80;332.10;;;;;;;30.03;70.16;101178.38;4998690;28;70295;-41
2022/11/08 01:23:30;;;;;;;335.53;300.33;;;;;;;30.05;70.73;101180.88;5005873;28;65906;-43
2022/11/08 01:26:07;;;;;;;264.75;236.93;;;;;;;29.96;70.33;101157.78;4994724;28;69200;-41
2022/11/08 01:28:38;;;;;;;204.68;182.70;;;;;;;30.04;70.29;101169.22;4990609;28;65257;-41
2022/11/08 01:31:18;;;;;;;179.30;159.63;;;;;;;30.06;70.03;101182.53;5001006;28;68936;-40
2022/11/08 01:33:49;;;;;;;181.05;161.88;;;;;;;30.00;69.56;101167.97;4999526;28;65501;-42
2022/11/08 01:36:23;;;;;;;173.10;154.20;;;;;;;30.14;69.92;101185.03;4998849;28;69758;-41
2022/11/08 01:38:55;;;;;;;171.77;152.98;;;;;;;30.15;69.88;101175.06;4998009;28;65994;-39
2022/11/08 01:41:27;;;;;;;169.93;151.60;;;;;;;30.17;70.50;101187.34;4997086;28;69610;-40
2022/11/08 01:43:59;;;;;;;163.57;145.95;;;;;;;30.19;70.10;101182.53;4980793;28;64917;-41
2022/11/08 01:46:35;;;;;;;172.57;154.10;;;;;;;30.10;69.67;101166.72;4998720;28;68845;-40
2022/11/08 01:49:33;;;;;;;169.20;151.07;;;;;;;30.17;70.23;101184.63;4995823;28;66443;-41
2022/11/08 01:52:20;;;;;;;165.32;147.38;;;;;;;30.03;70.11;101155.91;5002787;28;69672;-40
2022/11/08 01:55:07;;;;;;;162.98;144.77;;;;;;;30.02;69.15;101155.06;5001799;28;66318;-40
2022/11/08 01:57:52;;;;;;;161.55;144.23;;;;;;;30.27;68.78;101189.66;5000418;28;70085;-40
2022/11/08 02:00:24;;;;;;;154.60;137.80;;;;;;;30.21;69.25;101191.28;4999303;28;65488;-40
2022/11/08 02:03:00;;;;;;;153.77;137.27;;;;;;;29.89;69.02;101132.59;5000001;28;70214;-40
2022/11/08 02:05:32;;;;;;;149.80;133.80;;;;;;;30.28;68.90;101189.44;4996622;28;66880;-41
2022/11/08 02:08:37;;;;;;;160.57;143.02;;;;;;;30.21;69.73;101191.28;5002370;28;70127;-41
2022/11/08 02:11:13;;;;;;;156.30;139.77;;;;;;;30.31;69.12;101184.63;5002827;28;66467;-40
2022/11/08 02:13:44;;;;;;;144.18;128.48;;;;;;;30.33;68.93;101177.16;5000977;28;69679;-42
2022/11/08 02:16:16;;;;;;;141.18;126.20;;;;;;;30.38;68.48;101180.06;5002750;28;67144;-40
2022/11/08 02:18:48;;;;;;;136.68;122.13;;;;;;;30.30;68.15;101166.75;5000178;28;70092;-40
2022/11/08 02:21:50;;;;;;;139.02;123.82;;;;;;;30.01;68.35;101114.72;5002249;28;66106;-40
2022/11/08 02:24:21;;;;;;;128.48;114.65;;;;;;;30.41;67.95;101185.06;4996463;28;68949;-40
2022/11/08 02:26:54;;;;;;;;;;;;;;;30.10;69.71;101178.38;4994952;28;66078;-42
2022/11/08 02:29:34;;;;;;;122.07;109.00;;;;;;;30.41;67.94;101177.75;5002448;28;70779;-41
2022/11/08 02:32:05;;;;;;;119.53;106.65;;;;;;;30.44;68.21;101179.22;5003494;28;66807;-41
2022/11/08 02:34:58;;;;;;;122.03;108.82;;;;;;;30.20;68.22;101157.16;5001734;28;70063;-41
2022/11/08 02:37:29;;;;;;;117.05;104.55;;;;;;;30.46;68.04;101172.56;5002006;28;66691;-41
2022/11/08 02:40:00;;;;;;;119.38;106.32;;;;;;;30.48;67.94;101175.91;5002385;28;69528;-41
2022/11/08 02:42:33;;;;;;;117.22;104.45;;;;;;;30.53;67.66;101169.00;5001563;28;66283;-40
2022/11/08 02:45:06;;;;;;;115.78;103.10;;;;;;;30.53;67.61;101164.41;5001107;28;70181;-41
2022/11/08 02:47:38;;;;;;;117.43;104.68;;;;;;;30.56;67.27;101163.97;5002402;28;66408;-43
2022/11/08 02:50:09;;;;;;;116.32;103.68;;;;;;;30.46;67.51;101139.25;4998645;28;68404;-41
2022/11/08 02:52:40;;;;;;;109.53;97.13;;;;;;;30.59;66.87;101152.75;5002379;28;66305;-41
2022/11/08 02:55:11;;;;;;;106.78;95.18;;;;;;;30.61;67.15;101147.13;5002051;28;69949;-40
2022/11/08 02:57:43;;;;;;;112.82;100.57;;;;;;;30.63;67.13;101148.56;4996717;28;66680;-40
2022/11/08 03:00:15;;;;;;;110.68;98.07;;;;;;;30.66;67.20;101153.56;5000844;28;69513;-42
2022/11/08 03:02:50;;;;;;;108.60;96.80;;;;;;;30.67;66.87;101144.41;5001279;28;65993;-40
2022/11/08 03:05:22;;;;;;;111.00;99.00;;;;;;;30.70;66.85;101140.41;4993733;28;69871;-40
2022/11/08 03:07:54;;;;;;;109.53;97.55;;;;;;;30.70;66.31;101146.69;5002452;28;65448;-40
2022/11/08 03:10:27;;;;;;;103.55;92.47;;;;;;;30.75;66.65;101154.16;4997974;28;68188;-40
2022/11/08 03:13:04;;;;;;;102.07;91.28;;;;;;;30.34;66.37;101075.97;5003159;28;65866;-40
2022/11/08 03:15:34;;;;;;;103.40;92.05;;;;;;;30.78;66.31;101139.34;5001498;28;70484;-41
2022/11/08 03:18:06;;;;;;;100.20;89.38;;;;;;;30.65;66.29;101116.72;5000725;28;66900;-40
2022/11/08 03:20:36;;;;;;;102.53;91.27;;;;;;;30.80;65.98;101140.84;4996602;28;70371;-40
2022/11/08 03:23:08;;;;;;;97.28;86.65;;;;;;;30.83;66.17;101128.75;4996585;28;66168;-40
2022/11/08 03:25:39;;;;;;;94.25;83.80;;;;;;;30.83;66.40;101134.16;4992763;28;70245;-40
2022/11/08 03:28:10;;;;;;;;;;;;;;;30.55;66.60;101134.44;5001112;28;65483;-41
2022/11/08 03:30:41;;;;;;;95.53;85.03;;;;;;;30.78;66.05;101120.41;4986846;28;69673;-40
2022/11/08 03:33:12;;;;;;;92.40;82.60;;;;;;;30.88;66.16;101134.38;5002371;28;66178;-40
2022/11/08 03:35:43;;;;;;;92.85;82.65;;;;;;;30.91;65.93;101125.81;5002172;28;70136;-40
2022/11/08 03:38:15;;;;;;;89.00;79.32;;;;;;;30.85;65.55;101105.00;5001186;28;66700;-39
2022/11/08 03:40:48;;;;;;;91.53;81.75;;;;;;;30.90;65.83;101107.91;4992486;28;70325;-40
2022/11/08 03:43:19;;;;;;;89.25;79.45;;;;;;;30.94;65.27;101109.13;5001080;28;66183;-40
2022/11/08 03:45:51;;;;;;;89.75;79.60;;;;;;;30.94;65.24;101109.94;5001996;28;70421;-39
2022/11/08 03:48:22;;;;;;;83.10;73.90;;;;;;;30.99;65.35;101103.06;5002170;28;66617;-41
2022/11/08 03:50:53;;;;;;;87.53;75.97;;;;;;;30.88;65.29;101082.91;5000970;28;69731;-40
2022/11/08 03:53:24;;;;;;;85.70;75.77;;;;;;;30.99;65.32;101090.34;4982790;28;65648;-40
2022/11/08 03:55:59;;;;;;;88.57;77.53;;;;;;;30.95;65.37;101070.13;4997763;28;69184;-39
2022/11/08 03:58:30;;;;;;;86.45;75.55;;;;;;;31.03;64.95;101080.72;4987449;28;64680;-42
2022/11/08 04:01:05;;;;;;;88.90;74.75;;;;;;;31.02;64.82;101084.50;4981990;28;69815;-40
2022/11/08 04:03:37;;;;;;;82.47;73.32;;;;;;;31.03;65.08;101063.66;5000158;28;66245;-40
2022/11/08 04:06:08;;;;;;;83.95;74.75;;;;;;;31.08;65.11;101077.38;5001331;28;71218;-41
2022/11/08 04:08:39;;;;;;;83.80;74.75;;;;;;;30.94;64.82;101038.69;5001739;28;66382;-40
2022/11/08 04:16:49;;;;;;;82.28;72.50;;;;;;;31.10;64.81;101038.19;4999310;28;69912;-40
2022/11/08 04:22:11;;;;;;;83.00;74.00;;;;;;;30.86;64.74;100984.78;4997154;28;70200;-42
2022/11/08 04:24:42;;;;;;;86.47;77.25;;;;;;;31.13;64.67;101026.91;4999028;28;65750;-42
2022/11/08 04:27:14;;;;;;;90.32;80.47;;;;;;;31.03;64.52;100994.03;4999662;28;69277;-42
2022/11/08 04:29:44;;;;;;;86.13;76.70;;;;;;;30.59;64.55;100938.88;4995274;28;66906;-40
2022/11/08 04:32:16;;;;;;;83.38;74.63;;;;;;;31.16;64.66;101021.03;5000522;28;70298;-41
2022/11/08 04:34:47;;;;;;;87.57;78.30;;;;;;;31.11;64.33;100996.47;4993619;28;65296;-40
2022/11/08 04:37:19;;;;;;;93.97;83.78;;;;;;;31.22;64.71;101013.09;4999782;28;70297;-40
2022/11/08 04:39:50;;;;;;;92.10;82.25;;;;;;;31.22;64.13;100996.81;4996146;28;65629;-40
2022/11/08 04:42:22;;;;;;;90.75;81.25;;;;;;;31.24;64.78;100989.31;4997966;28;70103;-41
2022/11/08 04:44:53;;;;;;;88.95;79.35;;;;;;;31.15;64.61;100973.31;5000189;28;66603;-41
2022/11/08 04:47:24;;;;;;;83.60;74.95;;;;;;;31.21;64.59;100978.91;5001374;28;71022;-40
2022/11/08 04:49:55;;;;;;;84.88;71.50;;;;;;;31.28;64.48;100993.22;5010531;28;66820;-41
2022/11/08 04:52:26;;;;;;;80.65;71.95;;;;;;;31.31;64.08;100979.22;5015300;28;71827;-40
2022/11/08 04:54:58;;;;;;;82.30;73.35;;;;;;;31.29;64.34;100981.34;4998419;28;66280;-40
2022/11/08 04:57:29;;;;;;;81.53;72.72;;;;;;;31.31;64.07;100980.06;4999591;28;71310;-40
2022/11/08 05:00:00;;;;;;;77.88;68.80;;;;;;;31.34;63.97;100976.06;4999204;28;66626;-41
2022/11/08 05:02:32;;;;;;;79.47;70.93;;;;;;;31.38;63.91;100980.06;4999512;28;70567;-40
2022/11/08 05:05:04;;;;;;;76.67;68.50;;;;;;;31.28;64.08;100963.41;5000024;28;66243;-41
2022/11/08 05:07:36;;;;;;;79.55;70.53;;;;;;;31.35;63.91;100965.03;4999369;28;70307;-40
2022/11/08 05:10:07;;;;;;;79.22;70.75;;;;;;;31.40;63.93;100956.28;4999614;28;67642;-40
2022/11/08 05:12:38;;;;;;;79.30;70.88;;;;;;;31.42;63.75;100965.00;5000548;28;71247;-42
2022/11/08 05:15:09;;;;;;;78.32;69.97;;;;;;;31.42;63.63;100959.56;4998903;28;65769;-40
2022/11/08 05:17:40;;;;;;;76.30;68.07;;;;;;;31.44;63.43;100954.75;4996526;28;68947;-41
2022/11/08 05:25:53;;;;;;;73.95;65.88;;;;;;;31.44;63.41;100952.06;4992851;28;66061;-42
2022/11/08 05:28:24;;;;;;;77.00;68.72;;;;;;;31.39;63.48;100922.88;4998325;28;70541;-40
2022/11/08 05:30:56;;;;;;;75.40;67.45;;;;;;;31.54;63.21;100946.97;4987744;28;65519;-42
2022/11/08 05:33:27;;;;;;;76.70;68.55;;;;;;;31.50;63.71;100928.66;5000473;28;69439;-40
2022/11/08 05:36:04;;;;;;;75.55;67.75;;;;;;;30.77;63.08;100804.63;4999650;28;66867;-42
2022/11/08 05:38:36;;;;;;;77.38;68.95;;;;;;;31.60;63.28;100927.09;5000062;28;70533;-41
2022/11/08 05:41:17;;;;;;;76.97;68.75;;;;;;;31.27;62.65;100880.47;4999470;28;66542;-41
2022/11/08 05:43:51;;;;;;;76.82;68.63;;;;;;;30.54;63.21;100748.38;4999422;28;68791;-41
2022/11/08 05:46:23;;;;;;;72.75;65.25;;;;;;;31.61;63.36;100909.75;5000064;28;66361;-41
2022/11/08 05:48:54;;;;;;;75.10;67.20;;;;;;;31.53;63.00;100885.63;4989264;28;69160;-41
2022/11/08 05:51:26;;;;;;;74.95;66.88;;;;;;;31.70;63.01;100918.41;4997855;28;66631;-42
2022/11/08 05:53:57;;;;;;;75.45;66.25;;;;;;;31.63;63.18;100885.13;4998433;28;70228;-40
2022/11/08 05:56:28;;;;;;;72.93;65.27;;;;;;;31.39;62.79;100830.72;4999934;28;66275;-40
2022/11/08 05:58:59;;;;;;;73.77;65.83;;;;;;;31.77;62.54;100888.53;5000217;28;69848;-40
2022/11/08 06:01:31;;;;;;;71.50;63.85;;;;;;;31.78;62.96;100876.59;4996083;28;66130;-41
2022/11/08 06:04:02;;;;;;;72.07;64.17;;;;;;;31.77;62.67;100867.66;4998405;28;71766;-41
2022/11/08 06:06:32;;;;;;;70.53;62.95;;;;;;;31.79;62.82;100867.44;4998397;28;66782;-41
2022/11/08 06:09:03;;;;;;;73.18;65.35;;;;;;;31.84;62.43;100864.84;4994984;28;70441;-40
2022/11/08 06:11:34;;;;;;;70.70;63.30;;;;;;;31.86;62.57;100860.03;4997856;28;66293;-42
2022/11/08 06:14:05;;;;;;;70.25;62.95;;;;;;;31.84;62.28;100848.56;4998393;28;70176;-41
2022/11/08 06:16:36;;;;;;;69.45;62.30;;;;;;;31.89;62.56;100856.03;5013371;28;65296;-39
2022/11/08 06:19:07;;;;;;;71.10;63.72;;;;;;;31.89;62.45;100851.44;4996792;28;70097;-41
2022/11/08 06:21:38;;;;;;;71.55;63.83;;;;;;;31.92;62.43;100839.34;4999666;28;65385;-40
2022/11/08 06:24:09;;;;;;;69.00;62.00;;;;;;;31.94;62.29;100832.63;4991326;28;70609;-40
2022/11/08 06:26:41;;;;;;;67.03;60.03;;;;;;;31.94;62.23;100829.91;4999551;28;66184;-40
2022/11/08 06:29:11;;;;;;;67.65;60.65;;;;;;;32.00;62.44;100825.44;4999295;28;70076;-41
2022/11/08 06:31:42;;;;;;;66.32;59.45;;;;;;;32.00;62.32;100820.84;4997312;28;66502;-41
2022/11/08 06:34:13;;;;;;;66.13;59.38;;;;;;;31.93;62.28;100797.56;4999718;28;70101;-40
2022/11/08 06:36:44;;;;;;;64.90;58.05;;;;;;;32.01;62.26;100814.38;5000965;28;66568;-40
2022/11/08 06:39:15;;;;;;;66.72;59.70;;;;;;;32.03;62.00;100814.97;5001562;28;70002;-40
2022/11/08 06:41:46;;;;;;;63.33;56.75;;;;;;;32.01;61.82;100800.81;5001970;28;66735;-41
2022/11/08 06:44:17;;;;;;;64.37;57.87;;;;;;;32.07;61.85;100807.22;5001591;28;70498;-41
2022/11/08 06:46:48;;;;;;;64.03;57.43;;;;;;;31.98;61.75;100789.56;4995878;28;66056;-40
2022/11/08 06:49:20;;;;;;;62.65;56.10;;;;;;;32.10;61.48;100800.50;4999333;28;70657;-42
2022/11/08 06:51:51;;;;;;;62.20;55.80;;;;;;;31.99;61.60;100764.13;5000694;28;66359;-41
2022/11/08 06:54:22;;;;;;;62.63;56.00;;;;;;;32.16;61.44;100791.44;4999446;28;70620;-41
2022/11/08 06:56:59;;;;;;;67.38;55.83;;;;;;;32.20;61.78;100787.19;4986113;28;66287;-40
2022/11/08 06:59:30;;;;;;;60.55;54.05;;;;;;;31.99;61.94;100748.66;5001657;28;69505;-40
2022/11/08 07:02:01;;;;;;;60.00;53.47;;;;;;;32.19;61.32;100780.09;4985919;28;66243;-42
2022/11/08 07:04:32;;;;;;;59.53;53.28;;;;;;;32.22;61.56;100780.47;5002159;28;71312;-41
2022/11/08 07:07:03;;;;;;;56.78;50.90;;;;;;;32.24;61.14;100780.25;5002951;28;66444;-41
2022/11/08 07:09:33;;;;;;;56.70;50.58;;;;;;;32.25;61.07;100771.03;5002935;28;69821;-40
2022/11/08 07:12:05;;;;;;;56.83;50.93;;;;;;;32.28;60.92;100767.84;4993678;28;66929;-41
2022/11/08 07:14:36;;;;;;;55.88;49.85;;;;;;;32.30;61.20;100776.59;4995714;28;70118;-40
2022/11/08 07:17:07;;;;;;;52.85;47.50;;;;;;;32.32;61.08;100774.47;5000845;28;66264;-41
2022/11/08 07:19:38;;;;;;;53.78;48.17;;;;;;;32.11;60.98;100728.88;5001317;28;68485;-41
2022/11/08 07:22:09;;;;;;;53.25;47.35;;;;;;;32.35;61.22;100768.59;5001779;28;66401;-41
2022/11/08 07:24:40;;;;;;;50.60;45.42;;;;;;;32.31;60.90;100750.28;5001373;28;70077;-40
2022/11/08 07:27:11;;;;;;;53.03;47.45;;;;;;;32.41;60.70;100761.38;4995723;28;65566;-41
2022/11/08 07:29:42;;;;;;;49.60;44.40;;;;;;;32.40;60.83;100759.72;5000232;28;70611;-40
2022/11/08 07:32:13;;;;;;;48.45;43.83;;;;;;;32.41;60.56;100748.63;4999627;28;66404;-41
2022/11/08 07:34:44;;;;;;;48.80;43.65;;;;;;;32.45;60.86;100757.97;5001068;28;69533;-41
2022/11/08 07:37:15;;;;;;;48.95;43.95;;;;;;;32.46;60.92;100748.81;5000921;28;66469;-40
2022/11/08 07:39:46;;;;;;;48.08;43.15;;;;;;;32.54;60.41;100757.66;5000279;28;69637;-42
2022/11/08 07:42:16;;;;;;;47.30;42.38;;;;;;;32.52;60.42;100751.66;4985771;28;66432;-40
2022/11/08 07:45:00;;;;;;;45.47;40.83;;;;;;;32.59;60.42;100755.88;4996716;28;69582;-42
2022/11/08 07:47:31;;;;;;;45.13;40.42;;;;;;;32.60;60.42;100756.72;5000360;28;66174;-40
2022/11/08 07:50:03;;;;;;;44.40;39.97;;;;;;;32.63;60.44;100743.50;5001475;28;70292;-40
2022/11/08 07:52:34;;;;;;;43.65;39.30;;;;;;;32.55;60.32;100730.28;4999042;28;66475;-41
2022/11/08 07:55:06;;;;;;;43.13;39.37;;;;;;;32.61;60.21;100729.31;5001025;28;71448;-41
2022/11/08 07:57:37;;;;;;;42.88;38.65;;;;;;;32.71;60.11;100736.91;4999742;28;66045;-41
2022/11/08 08:00:09;;;;;;;41.70;37.75;;;;;;;32.76;59.96;100736.16;5000145;28;70392;-41
2022/11/08 08:02:42;;;;;;;42.28;38.08;;;;;;;32.70;59.85;100716.22;5000884;28;66651;-41
2022/11/08 08:05:14;;;;;;;43.28;38.85;;;;;;;32.66;60.18;100705.00;5000058;28;69268;-41
2022/11/08 08:07:45;;;;;;;41.27;36.13;;;;;;;32.75;59.66;100712.78;4997768;28;67930;-40
2022/11/08 08:10:16;;;;;;;39.63;36.03;;;;;;;32.71;59.81;100707.84;5001102;28;69686;-40
2022/11/08 08:12:46;;;;;;;39.08;35.35;;;;;;;32.83;59.59;100713.25;5000141;28;65648;-40
2022/11/08 08:15:17;;;;;;;38.40;34.50;;;;;;;32.75;59.80;100707.38;4998977;28;70077;-40
2022/11/08 08:17:48;;;;;;;38.83;34.83;;;;;;;32.74;59.50;100694.84;4999418;28;65625;-40
2022/11/08 08:20:19;;;;;;;37.83;34.23;;;;;;;32.85;59.73;100713.84;4999389;28;70861;-40
2022/11/08 08:22:51;;;;;;;37.13;33.78;;;;;;;32.89;59.40;100719.63;4998104;28;66245;-40
2022/11/08 08:25:23;;;;;;;39.22;35.03;;;;;;;32.90;59.51;100719.41;4999723;28;70236;-41
2022/11/08 08:27:55;;;;;;;37.20;33.38;;;;;;;32.78;59.30;100696.00;4987299;28;65977;-40
2022/11/08 08:30:27;;;;;;;37.70;34.08;;;;;;;32.96;59.24;100714.06;4998490;28;70446;-40
2022/11/08 08:33:05;;;;;;;35.80;32.33;;;;;;;32.98;58.94;100717.38;5001660;28;66296;-41
2022/11/08 08:35:56;;;;;;;34.67;31.52;;;;;;;32.99;59.17;100710.84;5000740;28;69908;-40
2022/11/08 08:38:27;;;;;;;35.63;31.90;;;;;;;33.00;59.18;100709.84;4996958;28;64200;-41
2022/11/08 08:41:00;;;;;;;34.38;30.85;;;;;;;33.03;59.12;100703.94;4995736;28;70603;-41
2022/11/08 08:43:33;;;;;;;35.53;31.73;;;;;;;33.05;58.81;100699.09;5000766;28;66533;-42
2022/11/08 08:46:06;;;;;;;32.85;29.92;;;;;;;32.89;59.10;100676.97;4999688;28;69948;-42
2022/11/08 08:48:37;;;;;;;32.08;29.27;;;;;;;33.09;58.93;100705.69;4999792;28;65721;-42
2022/11/08 08:51:09;;;;;;;31.95;29.10;;;;;;;33.05;58.59;100699.09;4995901;28;70555;-41
2022/11/08 08:53:39;;;;;;;31.27;28.55;;;;;;;33.04;58.63;100694.69;4999993;28;66127;-40
2022/11/08 08:56:10;;;;;;;32.53;29.15;;;;;;;33.03;58.89;100699.31;4994939;28;69510;-41
2022/11/08 08:58:41;;;;;;;31.33;28.65;;;;;;;33.12;58.94;100702.47;4999356;28;66043;-42
2022/11/08 09:01:15;;;;;;;31.50;28.42;;;;;;;33.02;58.82;100696.84;4997358;28;70334;-41
2022/11/08 09:04:05;;;;;;;;;;;;;;;32.88;59.10;100718.81;5000357;28;66696;-41
2022/11/08 09:06:36;;;;;;;29.55;26.90;;;;;;;33.11;58.54;100711.72;4997880;28;71459;-40
2022/11/08 09:09:07;;;;;;;29.27;26.63;;;;;;;33.16;58.76;100714.53;4997265;28;66519;-40
2022/11/08 09:11:39;;;;;;;29.20;26.42;;;;;;;33.11;58.37;100711.72;5015147;28;70047;-41
2022/11/08 09:14:10;;;;;;;28.80;25.98;;;;;;;33.15;58.70;100723.75;4996854;28;66664;-41
2022/11/08 09:16:41;;;;;;;28.40;25.73;;;;;;;32.98;58.73;100695.63;4995881;28;69627;-42
2022/11/08 09:19:12;;;;;;;28.63;25.92;;;;;;;32.68;58.53;100650.44;5000590;28;66477;-41
2022/11/08 09:21:42;;;;;;;27.27;24.88;;;;;;;33.18;58.17;100734.13;4998770;28;70590;-42
2022/11/08 09:24:14;;;;;;;24.53;22.17;;;;;;;33.01;58.46;100728.59;5000433;28;65846;-40
2022/11/08 09:26:45;;;;;;;21.03;19.23;;;;;;;32.87;58.88;100733.44;4999735;28;71173;-40
2022/11/08 09:29:15;;;;;;;20.07;18.17;;;;;;;32.76;59.07;100725.31;4996623;28;65121;-40
2022/11/08 09:31:48;;;;;;;17.85;15.82;;;;;;;32.64;59.25;100745.13;4998554;28;69320;-41
2022/11/08 09:34:19;;;;;;;15.82;14.25;;;;;;;32.63;59.33;100743.50;4998908;28;65695;-43
2022/11/08 09:36:50;;;;;;;16.10;14.68;;;;;;;32.40;59.24;100710.84;4997755;28;70202;-42
2022/11/08 09:39:21;;;;;;;16.37;14.70;;;;;;;32.54;59.37;100738.63;4997955;28;66271;-41
2022/11/08 09:41:58;;;;;;;14.93;13.63;;;;;;;32.49;59.63;100742.06;5012197;28;69907;-41
2022/11/08 09:44:59;;;;;;;14.75;12.63;;;;;;;32.38;59.80;100746.41;4999359;28;66033;-43
2022/11/08 09:47:39;;;;;;;19.30;12.85;;;;;;;32.40;59.81;100738.84;4993123;28;70974;-43
2022/11/08 09:50:29;;;;;;;13.50;12.10;;;;;;;32.37;59.92;100744.72;4998245;28;66004;-43
2022/11/08 09:53:26;;;;;;;13.75;12.27;;;;;;;32.00;60.70;100700.66;4995946;28;69563;-41
2022/11/08 09:56:07;;;;;;;13.00;11.77;;;;;;;32.23;60.69;100744.13;4993822;28;67126;-42
2022/11/08 09:58:44;;;;;;;12.80;11.73;;;;;;;31.85;60.86;100679.38;4999406;28;70580;-42
2022/11/08 10:01:15;;;;;;;12.88;11.55;;;;;;;32.27;60.97;100761.59;4997603;28;65895;-41
2022/11/08 10:03:49;;;;;;;12.00;10.82;;;;;;;32.26;61.04;100764.53;4993332;28;70127;-42
2022/11/08 10:07:11;;;;;;;11.30;10.50;;;;;;;32.14;61.60;100760.97;4993764;28;66610;-43
2022/11/08 10:10:04;;;;;;;12.60;11.30;;;;;;;32.13;62.04;100781.03;4982261;28;70634;-42
2022/11/08 10:13:00;;;;;;;12.13;10.98;;;;;;;32.19;61.69;100774.69;5001713;28;65757;-41
2022/11/08 10:15:52;;;;;;;12.27;11.15;;;;;;;32.12;61.95;100773.94;4998619;28;70681;-42
2022/11/08 10:18:52;;;;;;;14.02;11.13;;;;;;;32.15;61.97;100773.47;4998404;28;65718;-42
2022/11/08 10:21:42;;;;;;;12.00;11.00;;;;;;;32.07;62.11;100771.09;4998709;28;70603;-43
2022/11/08 10:24:34;;;;;;;15.73;12.05;;;;;;;32.11;62.47;100770.41;5000470;28;64160;-42
2022/11/08 10:27:22;;;;;;;19.50;11.80;;;;;;;31.69;62.65;100709.84;4998806;28;69275;-41
2022/11/08 10:30:00;;;;;;;12.88;11.68;;;;;;;32.02;62.90;100763.66;4998103;28;65107;-40
2022/11/08 10:32:34;;;;;;;13.00;11.30;;;;;;;32.11;63.82;100772.28;4999519;28;68563;-46
2022/11/08 10:35:11;;;;;;;32.90;16.88;;;;;;;32.11;63.63;100772.28;4999481;28;65049;-45
2022/11/08 10:37:44;;;;;;;38.83;23.73;;;;;;;31.69;63.51;100709.84;5001903;28;70650;-44
2022/11/08 10:40:39;;;;;;;34.28;25.58;;;;;;;32.07;63.28;100781.94;5000366;28;67366;-44
2022/11/08 10:43:18;;;;;;;39.13;25.80;;;;;;;31.76;63.59;100724.13;4998971;28;69648;-42
2022/11/08 10:45:50;;;;;;;37.38;28.55;;;;;;;32.13;63.94;100794.59;5001551;28;66351;-42
2022/11/08 10:48:21;;;;;;;46.95;30.52;;;;;;;31.96;65.23;100776.25;4998381;28;70667;-45
2022/11/08 10:50:52;;;;;;;50.15;30.30;;;;;;;32.13;65.99;100797.31;5001852;28;66031;-41
2022/11/08 10:53:30;;;;;;;40.00;27.48;;;;;;;31.90;66.33;100769.00;5001754;28;70096;-41
2022/11/08 10:56:04;;;;;;;37.15;26.48;;;;;;;32.16;66.06;100797.69;5002149;28;65668;-41
2022/11/08 10:58:43;;;;;;;36.53;25.52;;;;;;;31.64;65.60;100715.94;5001410;28;70060;-41
2022/11/08 11:01:25;;;;;;;41.92;26.85;;;;;;;32.33;65.21;100797.03;4996731;28;66615;-43
2022/11/08 11:03:56;;;;;;;44.03;27.02;;;;;;;32.37;65.17;100809.06;5002135;28;69638;-41
2022/11/08 11:06:31;;;;;;;37.37;27.07;;;;;;;32.32;65.13;100790.75;4999478;28;66675;-43
2022/11/08 11:09:19;;;;;;;37.15;26.52;;;;;;;32.35;65.57;100803.88;5001402;28;69911;-42
2022/11/08 11:11:58;;;;;;;44.05;26.45;;;;;;;32.45;65.57;100811.44;4998911;28;66444;-41
2022/11/08 11:14:29;;;;;;;33.33;26.98;;;;;;;32.52;65.41;100822.25;5007296;28;69165;-41
2022/11/08 11:17:13;;;;;;;34.92;25.60;;;;;;;32.39;65.61;100798.78;4998811;28;66468;-42
2022/11/08 11:19:54;;;;;;;34.75;25.05;;;;;;;32.45;65.68;100811.44;4999012;28;70229;-42
2022/11/08 11:22:33;;;;;;;39.50;26.23;;;;;;;32.40;66.10;100814.00;4999439;28;65770;-41
2022/11/08 11:25:17;;;;;;;42.90;26.55;;;;;;;32.53;65.77;100823.88;4996861;28;70288;-43
2022/11/08 11:27:59;;;;;;;42.03;26.15;;;;;;;32.16;66.08;100775.97;4999045;28;65795;-41
2022/11/08 11:30:34;;;;;;;32.17;25.25;;;;;;;32.23;65.73;100786.72;4997420;28;68581;-43
2022/11/08 11:33:25;;;;;;;33.22;25.33;;;;;;;32.58;65.70;100837.59;5002114;28;65821;-42
2022/11/08 11:36:19;;;;;;;36.90;26.52;;;;;;;32.46;66.74;100846.53;4997249;28;70240;-41
2022/11/08 11:38:53;;;;;;;36.38;26.33;;;;;;;32.55;66.63;100851.63;4997229;28;64507;-42
2022/11/08 11:41:33;;;;;;;31.60;25.02;;;;;;;32.56;66.91;100862.25;4999323;28;69215;-44
2022/11/08 11:44:22;;;;;;;32.30;26.35;;;;;;;32.40;66.75;100841.16;4996909;28;65627;-42
2022/11/08 11:47:43;;;;;;;30.38;27.17;;;;;;;32.39;67.25;100864.78;4998841;28;69801;-41
2022/11/08 11:50:26;;;;;;;38.58;29.70;;;;;;;32.16;67.06;100808.53;4997700;28;65994;-43
2022/11/08 11:53:00;;;;;;;39.28;32.67;;;;;;;32.07;67.34;100799.06;4997177;28;70124;-42
2022/11/08 11:56:08;;;;;;;45.63;31.23;;;;;;;32.41;67.50;100870.81;4999074;28;66567;-42
2022/11/08 11:59:07;;;;;;;34.30;28.50;;;;;;;32.40;67.83;100880.03;4998406;28;70470;-43
2022/11/08 12:02:16;;;;;;;30.98;27.67;;;;;;;32.35;67.36;100871.75;4999931;28;66575;-43
2022/11/08 12:05:13;;;;;;;32.80;27.88;;;;;;;32.43;67.64;100879.56;5002462;28;70201;-44